Data for 01/04/2015

Time Sea-Level Adjusted Pressure Absolute Pressure Temperature Relative Humidity Dew Point   
(mb) (inHg) (mb) (inHg) (C) (F) (%) (C) (F)
00:05 1022 30.18 851 25.13 -14.4 6 83 -16.8 1.8
00:10 1022 30.18 851 25.13 -14.3 6.3 82 -16.7 2
00:15 1022 30.18 852 25.16 -14.1 6.6 81 -16.7 1.9
00:20 1022 30.18 852 25.16 -14 6.7 81 -16.6 2.2
00:25 1022 30.18 852 25.16 -14 6.9 81 -16.6 2.1
00:30 1023 30.21 852 25.16 -14 6.8 81 -16.6 2.1
00:35 1023 30.21 852 25.16 -14 6.8 81 -16.6 2.1
00:40 1022 30.18 852 25.16 -14 6.8 80 -16.7 1.9
00:45 1022 30.18 851 25.13 -14.2 6.5 80 -16.9 1.6
00:50 1022 30.18 851 25.13 -14.4 6 82 -16.9 1.5
00:55 1022 30.18 851 25.13 -14.6 5.7 83 -17 1.5
01:00 1022 30.18 851 25.13 -14.7 5.6 83 -17 1.5
01:05 1022 30.18 851 25.13 -14.6 5.7 84 -16.8 1.8
01:10 1022 30.18 851 25.13 -14.5 5.9 83 -16.7 1.9
01:15 1022 30.18 851 25.13 -14.5 5.8 84 -16.7 1.9
01:20 1022 30.18 851 25.13 -14.5 5.9 84 -16.7 1.9
01:25 1022 30.18 851 25.13 -14.4 6 83 -16.7 1.9
01:30 1022 30.18 851 25.13 -14.5 5.9 84 -16.7 2
01:35 1022 30.18 851 25.13 -14.5 5.9 84 -16.7 2
01:40 1022 30.18 851 25.13 -14.6 5.8 84 -16.7 1.9
01:45 1022 30.18 851 25.13 -14.6 5.7 84 -16.7 1.9
01:50 1022 30.18 851 25.13 -14.6 5.6 85 -16.7 2
01:55 1022 30.18 851 25.13 -14.7 5.6 84 -16.8 1.8
02:00 1022 30.18 851 25.13 -14.6 5.7 85 -16.7 2
02:05 1022 30.18 851 25.13 -14.6 5.7 85 -16.6 2.1
02:10 1022 30.18 851 25.13 -14.5 5.9 85 -16.6 2.2
02:15 1022 30.18 851 25.13 -14.5 6 84 -16.5 2.2
02:20 1022 30.18 851 25.13 -14.4 6.1 84 -16.5 2.3
02:25 1021 30.15 851 25.13 -14.3 6.2 84 -16.4 2.5
02:30 1021 30.15 851 25.13 -14.2 6.4 83 -16.5 2.4
02:35 1021 30.15 851 25.13 -14.2 6.4 83 -16.5 2.3
02:40 1021 30.15 851 25.13 -14.2 6.4 84 -16.4 2.4
02:45 1022 30.18 851 25.13 -14.2 6.5 83 -16.5 2.4
02:50 1022 30.18 851 25.13 -14.1 6.5 83 -16.5 2.4
02:55 1022 30.18 851 25.13 -14.2 6.4 82 -16.6 2.1
03:00 1022 30.18 851 25.13 -14.3 6.3 82 -16.8 1.8
03:05 1022 30.18 851 25.13 -14.3 6.3 82 -16.7 2
03:10 1022 30.18 851 25.13 -14.3 6.3 82 -16.7 1.9
03:15 1022 30.18 851 25.13 -14.3 6.2 82 -16.7 1.9
03:20 1022 30.18 851 25.13 -14.3 6.2 82 -16.8 1.8
03:25 1022 30.18 851 25.13 -14.4 6.1 83 -16.7 1.9
03:30 1022 30.18 851 25.13 -14.4 6.1 82 -16.8 1.8
03:35 1022 30.18 851 25.13 -14.5 6 82 -16.8 1.7
03:40 1022 30.18 851 25.13 -14.5 6 82 -16.8 1.7
03:45 1022 30.18 851 25.13 -14.5 6 83 -16.8 1.8
03:50 1022 30.18 851 25.13 -14.4 6.1 83 -16.7 1.9
03:55 1022 30.18 852 25.16 -14.5 6 83 -16.8 1.8
04:00 1023 30.21 852 25.16 -14.5 6 82 -16.8 1.7
04:05 1023 30.21 852 25.16 -14.5 5.9 83 -16.8 1.7
04:10 1023 30.21 852 25.16 -14.5 5.9 83 -16.8 1.7
04:15 1023 30.21 852 25.16 -14.6 5.8 83 -16.8 1.7
04:20 1023 30.21 852 25.16 -14.5 5.8 82 -16.9 1.5
04:25 1023 30.21 852 25.16 -14.6 5.7 82 -17 1.4
04:30 1023 30.21 852 25.16 -14.7 5.6 82 -17.2 1.1
04:35 1023 30.21 852 25.16 -15 5.1 83 -17.3 0.9
04:40 1023 30.21 852 25.16 -15 5 84 -17.1 1.1
04:45 1023 30.21 852 25.16 -15 5 83 -17.3 0.9
04:50 1023 30.21 852 25.16 -15.2 4.7 83 -17.4 0.7
04:55 1023 30.21 852 25.16 -15 5 83 -17.2 1
05:00 1022 30.18 852 25.16 -15 4.9 83 -17.3 0.9
05:05 1022 30.18 852 25.16 -15.1 4.8 84 -17.2 1
05:10 1022 30.18 851 25.13 -15 5 83 -17.2 1
05:15 1022 30.18 851 25.13 -15.1 4.9 84 -17.2 1
05:20 1022 30.18 851 25.13 -15.1 4.9 84 -17.2 1
05:25 1022 30.18 851 25.13 -15 5 84 -17.2 1.1
05:30 1022 30.18 851 25.13 -14.8 5.3 83 -17.1 1.2
05:35 1022 30.18 851 25.13 -14.8 5.4 82 -17.2 1
05:40 1022 30.18 851 25.13 -14.8 5.3 82 -17.2 1
05:45 1022 30.18 851 25.13 -14.8 5.3 82 -17.3 0.9
05:50 1022 30.18 851 25.13 -14.8 5.3 82 -17.3 0.9
05:55 1022 30.18 852 25.16 -14.9 5.2 82 -17.3 0.9
06:00 1022 30.18 852 25.16 -14.9 5.2 83 -17.2 1
06:05 1022 30.18 852 25.16 -14.9 5.1 82 -17.4 0.8
06:10 1023 30.21 852 25.16 -15 5 82 -17.4 0.7
06:15 1022 30.18 852 25.16 -15 5.1 82 -17.3 0.8
06:20 1022 30.18 852 25.16 -15 5 82 -17.3 0.8
06:25 1022 30.18 852 25.16 -15 4.9 82 -17.5 0.5
06:30 1022 30.18 852 25.16 -15.1 4.8 82 -17.5 0.4
06:35 1022 30.18 851 25.13 -15.2 4.7 83 -17.5 0.5
06:40 1022 30.18 851 25.13 -15.3 4.4 83 -17.6 0.2
06:45 1022 30.18 851 25.13 -15.5 4 84 -17.7 0.1
06:50 1022 30.18 851 25.13 -15.6 4 83 -17.8 -0.1
06:55 1022 30.18 851 25.13 -15.6 3.9 84 -17.8 -0
07:00 1022 30.18 851 25.13 -15.7 3.8 84 -17.8 -0.1
07:05 1022 30.18 851 25.13 -15.6 3.9 84 -17.8 -0
07:10 1022 30.18 851 25.13 -15.5 4.1 83 -17.7 0.1
07:15 1022 30.18 852 25.16 -15.5 4.2 83 -17.7 0.2
07:20 1022 30.18 851 25.13 -15.4 4.3 84 -17.5 0.5
07:25 1022 30.18 851 25.13 -15.2 4.7 83 -17.4 0.6
07:30 1022 30.18 852 25.16 -15.1 4.8 83 -17.4 0.6
07:35 1022 30.18 852 25.16 -15.1 4.8 82 -17.5 0.6
07:40 1022 30.18 852 25.16 -15.1 4.9 82 -17.5 0.6
07:45 1022 30.18 852 25.16 -15.1 4.9 82 -17.5 0.5
07:50 1022 30.18 852 25.16 -15.1 4.9 82 -17.5 0.4
07:55 1022 30.18 852 25.16 -15.2 4.7 82 -17.6 0.3
08:00 1023 30.21 852 25.16 -15.2 4.7 82 -17.6 0.4
08:05 1023 30.21 852 25.16 -15.1 4.8 81 -17.7 0.2
08:10 1023 30.21 852 25.16 -15.4 4.4 82 -17.8 -0
08:15 1023 30.21 852 25.16 -15.5 4.2 83 -17.7 0.1
08:20 1023 30.21 852 25.16 -15.5 4.1 83 -17.8 0
08:25 1023 30.21 852 25.16 -15.5 4.2 84 -17.6 0.3
08:30 1023 30.21 852 25.16 -15.4 4.3 83 -17.7 0.1
08:35 1023 30.21 852 25.16 -15.5 4.1 83 -17.7 0.1
08:40 1023 30.21 852 25.16 -15.4 4.3 83 -17.7 0.2
08:45 1023 30.21 852 25.16 -15.4 4.4 83 -17.7 0.2
08:50 1023 30.21 852 25.16 -15.4 4.2 83 -17.7 0.2
08:55 1023 30.21 852 25.16 -15.4 4.3 83 -17.7 0.1
09:00 1023 30.21 852 25.16 -15.4 4.2 83 -17.7 0.1
09:05 1023 30.21 852 25.16 -15.5 4.2 83 -17.7 0.1
09:10 1023 30.21 852 25.16 -15.5 4.2 83 -17.7 0.1
09:15 1023 30.21 852 25.16 -15.5 4.1 83 -17.8 -0
09:20 1023 30.21 852 25.16 -15.7 3.7 85 -17.7 0.1
09:25 1023 30.21 852 25.16 -15.5 4.1 83 -17.7 0.1
09:30 1023 30.21 852 25.16 -15.4 4.2 82 -17.9 -0.2
09:35 1023 30.21 852 25.16 -15.6 3.8 82 -18 -0.4
09:40 1023 30.21 852 25.16 -15.7 3.7 84 -17.9 -0.2
09:45 1023 30.21 852 25.16 -15.7 3.7 83 -18.1 -0.5
09:50 1023 30.21 852 25.16 -15.9 3.5 84 -17.9 -0.3
09:55 1023 30.21 852 25.16 -15.4 4.2 82 -17.9 -0.1
10:00 1023 30.21 852 25.16 -15.4 4.2 82 -17.9 -0.2
10:05 1023 30.21 852 25.16 -15.6 3.9 83 -17.9 -0.3
10:10 1023 30.21 852 25.16 -15.5 4.1 82 -17.9 -0.3
10:15 1023 30.21 852 25.16 -15.3 4.6 81 -17.8 -0.1
10:20 1023 30.21 853 25.19 -15.1 4.9 80 -17.7 0.1
10:25 1023 30.21 853 25.19 -14.9 5.2 80 -17.7 0.2
10:30 1023 30.21 853 25.19 -15 5 79 -17.8 -0.1
10:35 1023 30.21 853 25.19 -15.2 4.7 80 -17.9 -0.2
10:40 1023 30.21 853 25.19 -14.8 5.3 78 -17.9 -0.2
10:45 1024 30.24 853 25.19 -14.8 5.4 77 -18 -0.4
10:50 1024 30.24 853 25.19 -14.8 5.4 77 -18 -0.3
10:55 1024 30.24 853 25.19 -14.6 5.7 76 -17.9 -0.3
11:00 1024 30.24 853 25.19 -14.5 5.8 76 -17.9 -0.3
11:05 1024 30.24 853 25.19 -14.6 5.8 77 -17.8 -0
11:10 1024 30.24 853 25.19 -14.5 6 75 -18 -0.3
11:15 1024 30.24 853 25.19 -14.3 6.2 73 -18.1 -0.6
11:20 1024 30.24 853 25.19 -14.5 6 75 -18 -0.4
11:25 1024 30.24 853 25.19 -14.4 6 74 -18.1 -0.6
11:30 1024 30.24 853 25.19 -14.5 5.8 73 -18.3 -1
11:35 1024 30.24 853 25.19 -14.7 5.6 74 -18.3 -0.9
11:40 1024 30.24 853 25.19 -14.5 5.9 75 -18 -0.4
11:45 1024 30.24 853 25.19 -14.4 6 75 -18 -0.3
11:50 1024 30.24 853 25.19 -14.4 6.1 75 -17.9 -0.1
11:55 1024 30.24 853 25.19 -14.4 6.2 75 -17.9 -0.2
12:00 1024 30.24 853 25.19 -14.2 6.5 74 -17.9 -0.2
12:05 1024 30.24 853 25.19 -14.1 6.7 74 -17.8 -0.1
12:10 1024 30.24 853 25.19 -14 6.7 73 -17.8 -0.1
12:15 1024 30.24 853 25.19 -14.1 6.7 73 -17.9 -0.2
12:20 1024 30.24 853 25.19 -14.1 6.7 73 -17.9 -0.2
12:25 1024 30.24 853 25.19 -13.8 7.2 71 -17.9 -0.3
12:30 1024 30.24 853 25.19 -13.8 7.1 72 -17.8 -0.1
12:35 1024 30.24 853 25.19 -13.9 7 72 -17.9 -0.2
12:40 1024 30.24 853 25.19 -14 6.9 72 -18 -0.4
12:45 1024 30.24 853 25.19 -14 6.9 73 -17.8 -0
12:50 1024 30.24 853 25.19 -14.1 6.7 72 -18 -0.5
12:55 1024 30.24 853 25.19 -14.5 5.9 74 -18.1 -0.6
13:00 1023 30.21 853 25.19 -15 5.1 77 -18.2 -0.8
13:05 1023 30.21 853 25.19 -14.5 5.8 76 -17.9 -0.3
13:10 1023 30.21 852 25.16 -14.2 6.5 74 -17.8 -0.1
13:15 1023 30.21 852 25.16 -14.3 6.3 75 -17.9 -0.1
13:20 1023 30.21 852 25.16 -14.3 6.2 74 -18 -0.4
13:25 1023 30.21 852 25.16 -14.3 6.3 74 -18 -0.4
13:30 1023 30.21 853 25.19 -14 6.8 74 -17.7 0.2
13:35 1023 30.21 853 25.19 -14.1 6.6 73 -17.9 -0.3
13:40 1023 30.21 853 25.19 -13.9 6.9 72 -17.9 -0.3
13:45 1024 30.24 853 25.19 -13.9 7 72 -17.9 -0.3
13:50 1024 30.24 853 25.19 -13.6 7.6 70 -18 -0.3
13:55 1024 30.24 853 25.19 -13.4 7.8 70 -17.8 -0
14:00 1024 30.24 853 25.19 -13.3 8.1 67 -18.1 -0.6
14:05 1024 30.24 853 25.19 -13.1 8.5 67 -17.9 -0.3
14:10 1024 30.24 853 25.19 -13.1 8.4 70 -17.5 0.4
14:15 1024 30.24 853 25.19 -14 6.8 74 -17.6 0.3
14:20 1024 30.24 853 25.19 -14.2 6.4 75 -17.8 0
14:25 1024 30.24 853 25.19 -14 6.8 74 -17.8 -0
14:30 1024 30.24 853 25.19 -13.9 7 73 -17.8 0
14:35 1024 30.24 853 25.19 -13.7 7.4 72 -17.7 0.1
14:40 1024 30.24 853 25.19 -13.6 7.6 72 -17.6 0.3
14:45 1024 30.24 853 25.19 -13.7 7.3 72 -17.7 0.1
14:50 1024 30.24 853 25.19 -13.7 7.4 72 -17.7 0.2
14:55 1024 30.24 853 25.19 -13.8 7.2 72 -17.8 -0.1
15:00 1024 30.24 853 25.19 -13.8 7.2 71 -17.9 -0.2
15:05 1024 30.24 854 25.22 -13.9 7 73 -17.8 0
15:10 1025 30.27 854 25.22 -13.9 7 73 -17.8 0
15:15 1025 30.27 854 25.22 -13.9 7.1 72 -17.9 -0.2
15:20 1025 30.27 854 25.22 -13.8 7.1 72 -17.9 -0.1
15:25 1025 30.27 854 25.22 -13.9 7 73 -17.8 0
15:30 1025 30.27 854 25.22 -13.9 7 73 -17.8 0
15:35 1025 30.27 854 25.22 -13.8 7.2 73 -17.7 0.1
15:40 1025 30.27 854 25.22 -13.7 7.3 72 -17.8 -0.1
15:45 1025 30.27 854 25.22 -13.8 7.1 71 -17.9 -0.3
15:50 1025 30.27 854 25.22 -13.9 7 73 -17.7 0.1
15:55 1025 30.27 854 25.22 -14 6.8 72 -18 -0.3
16:00 1025 30.27 854 25.22 -14 6.7 73 -17.9 -0.2
16:05 1025 30.27 854 25.22 -14.1 6.6 74 -17.8 0
16:10 1025 30.27 854 25.22 -14.3 6.3 75 -17.8 -0.1
16:15 1025 30.27 854 25.22 -14.1 6.5 75 -17.6 0.3
16:20 1025 30.27 854 25.22 -14 6.8 75 -17.6 0.3
16:25 1025 30.27 854 25.22 -14.1 6.5 75 -17.7 0.1
16:30 1025 30.27 854 25.22 -14 6.8 74 -17.7 0.2
16:35 1025 30.27 854 25.22 -14.2 6.5 74 -17.8 -0.1
16:40 1025 30.27 854 25.22 -14.5 6 76 -17.8 -0.1
16:45 1025 30.27 854 25.22 -14.5 6 75 -18 -0.4
16:50 1025 30.27 854 25.22 -14.5 6 75 -18 -0.3
16:55 1025 30.27 854 25.22 -14.4 6.1 77 -17.6 0.3
17:00 1025 30.27 854 25.22 -14.1 6.6 76 -17.4 0.6
17:05 1025 30.27 854 25.22 -14 6.9 75 -17.5 0.4
17:10 1025 30.27 854 25.22 -14 6.8 76 -17.4 0.7
17:15 1024 30.24 854 25.22 -14.1 6.6 77 -17.4 0.7
17:20 1024 30.24 854 25.22 -14 6.9 75 -17.5 0.4
17:25 1024 30.24 854 25.22 -14.2 6.5 77 -17.4 0.7
17:30 1024 30.24 854 25.22 -14.1 6.7 77 -17.3 0.8
17:35 1024 30.24 854 25.22 -14.1 6.6 77 -17.3 0.9
17:40 1024 30.24 854 25.22 -14.2 6.5 77 -17.4 0.6
17:45 1024 30.24 854 25.22 -14.1 6.6 77 -17.3 0.9
17:50 1024 30.24 854 25.22 -14.1 6.6 77 -17.3 0.8
17:55 1024 30.24 854 25.22 -14.3 6.3 78 -17.4 0.8
18:00 1024 30.24 854 25.22 -14.3 6.2 78 -17.4 0.6
18:05 1024 30.24 854 25.22 -14.3 6.4 78 -17.3 0.9
18:10 1024 30.24 854 25.22 -14.2 6.5 76 -17.5 0.5
18:15 1024 30.24 854 25.22 -14.4 6 78 -17.5 0.6
18:20 1024 30.24 854 25.22 -14.5 5.9 78 -17.6 0.4
18:25 1025 30.27 854 25.22 -14.8 5.4 79 -17.6 0.3
18:30 1025 30.27 854 25.22 -14.6 5.8 78 -17.6 0.3
18:35 1025 30.27 854 25.22 -14.7 5.5 80 -17.5 0.5
18:40 1024 30.24 854 25.22 -14.7 5.5 80 -17.4 0.7
18:45 1024 30.24 854 25.22 -14.5 5.9 79 -17.3 0.8
18:50 1024 30.24 854 25.22 -14.6 5.6 79 -17.5 0.4
18:55 1024 30.24 853 25.19 -15 4.9 81 -17.6 0.3
19:00 1024 30.24 853 25.19 -15 5.1 80 -17.7 0.1
19:05 1024 30.24 853 25.19 -14.9 5.1 81 -17.5 0.4
19:10 1024 30.24 853 25.19 -14.9 5.3 81 -17.5 0.5
19:15 1024 30.24 853 25.19 -14.9 5.3 80 -17.6 0.2
19:20 1024 30.24 853 25.19 -15.1 4.8 82 -17.6 0.4
19:25 1024 30.24 853 25.19 -15.1 4.9 81 -17.6 0.2
19:30 1024 30.24 853 25.19 -15.1 4.9 81 -17.6 0.3
19:35 1024 30.24 853 25.19 -15.1 4.9 82 -17.5 0.4
19:40 1024 30.24 853 25.19 -15 5.1 81 -17.5 0.5
19:45 1024 30.24 853 25.19 -14.9 5.1 82 -17.4 0.7
19:50 1024 30.24 853 25.19 -14.8 5.3 80 -17.5 0.5
19:55 1024 30.24 853 25.19 -14.9 5.2 82 -17.4 0.7
20:00 1024 30.24 853 25.19 -14.9 5.3 82 -17.2 1
20:05 1024 30.24 853 25.19 -14.7 5.5 81 -17.3 0.8
20:10 1024 30.24 853 25.19 -14.8 5.5 81 -17.4 0.7
20:15 1024 30.24 853 25.19 -14.9 5.2 82 -17.3 0.8
20:20 1023 30.21 853 25.19 -14.8 5.4 82 -17.2 1
20:25 1023 30.21 853 25.19 -14.8 5.4 82 -17.2 1
20:30 1023 30.21 852 25.16 -14.7 5.5 81 -17.3 0.8
20:35 1023 30.21 852 25.16 -14.8 5.4 82 -17.2 1.1
20:40 1023 30.21 852 25.16 -14.6 5.6 82 -17 1.4
20:45 1023 30.21 852 25.16 -14.5 6 83 -16.8 1.7
20:50 1023 30.21 852 25.16 -14.4 6.1 81 -17.1 1.3
20:55 1023 30.21 852 25.16 -14.6 5.7 82 -17.1 1.3
21:00 1023 30.21 852 25.16 -14.4 6 82 -16.9 1.5
21:05 1023 30.21 852 25.16 -14.4 6 82 -16.9 1.6
21:10 1023 30.21 852 25.16 -14.4 6.1 83 -16.7 1.9
21:15 1023 30.21 852 25.16 -14.3 6.2 81 -16.9 1.6
21:20 1023 30.21 852 25.16 -14.4 6 81 -17 1.5
21:25 1023 30.21 852 25.16 -14.6 5.8 81 -17.1 1.2
21:30 1023 30.21 852 25.16 -14.7 5.6 82 -17.1 1.1
21:35 1023 30.21 852 25.16 -14.8 5.4 83 -17 1.3
21:40 1023 30.21 852 25.16 -14.7 5.6 83 -17 1.4
21:45 1023 30.21 852 25.16 -14.7 5.6 83 -17 1.4
21:50 1022 30.18 852 25.16 -14.7 5.5 83 -16.9 1.5
21:55 1022 30.18 851 25.13 -14.7 5.5 84 -16.9 1.7
22:00 1022 30.18 851 25.13 -14.5 5.9 83 -16.7 1.9
22:05 1022 30.18 851 25.13 -14.4 6.1 83 -16.7 2
22:10 1022 30.18 851 25.13 -14.3 6.3 83 -16.6 2.2
22:15 1022 30.18 851 25.13 -14.1 6.7 83 -16.4 2.5
22:20 1022 30.18 851 25.13 -13.9 6.9 82 -16.3 2.6
22:25 1021 30.15 851 25.13 -14 6.8 82 -16.5 2.4
22:30 1021 30.15 851 25.13 -14.1 6.6 83 -16.4 2.5
22:35 1021 30.15 850 25.1 -13.9 6.9 83 -16.3 2.7
22:40 1021 30.15 850 25.1 -13.9 7 83 -16.2 2.8
22:45 1021 30.15 850 25.1 -13.8 7.2 83 -16.2 2.9
22:50 1021 30.15 850 25.1 -13.7 7.4 82 -16.1 3
22:55 1021 30.15 850 25.1 -13.7 7.4 83 -16 3.1
23:00 1020 30.12 850 25.1 -13.5 7.6 82 -15.9 3.3
23:05 1020 30.12 849 25.07 -13.4 7.9 82 -15.9 3.5
23:10 1020 30.12 849 25.07 -13.4 7.9 82 -15.9 3.4
23:15 1020 30.12 849 25.07 -13.4 8 82 -15.8 3.5
23:20 1020 30.12 849 25.07 -13.3 8.2 83 -15.6 3.9
23:25 1020 30.12 849 25.07 -13 8.6 82 -15.5 4.1
23:30 1020 30.12 849 25.07 -12.9 8.8 82 -15.3 4.4
23:35 1020 30.12 849 25.07 -12.7 9.1 82 -15.2 4.6
23:40 1020 30.12 849 25.07 -12.6 9.4 81 -15.2 4.7
23:45 1020 30.12 849 25.07 -12.6 9.4 81 -15.2 4.6
23:50 1020 30.12 849 25.07 -12.6 9.4 81 -15.1 4.7
23:55 1019 30.09 849 25.07 -12.6 9.3 81 -15.2 4.7
24:00 1019 30.09 849 25.07 -12.6 9.3 81 -15.2 4.7